PWSweather.com
Personal Weather Stations
Station Observations

PoschiavoCH

Lat: 46.31962499999999, Lon: 10.066551000000004

Elevation: 3517

Station Type: WH 1080

http://www.meteoposchiavo.com

High Low Average
Temperature 60.0°F15.6°C 32.0°F0.0°C 45.4°F7.4°C
Dew Point 39.8°F4.3°C 27.1°F-2.7°C 32.8°F0.4°C
Winds 6.9 mph 11.1 kmh Calm Calm 1.0 mph SE1.6 kmh SE
Wind Gusts 9.2 mph14.8 kmh -- 2.0 mph3.2 kmh
Humidity 98% 34% 66%
Pressure 26.52 in898.1 mb 26.35 in892.3 mb -
Precipitation 0.18 in4.6 mm - -
Hour Temp Dew Point Humidity Winds Wind Gusts Pressure Precip Precip Rate Daily Precip Total
12:00 AM 33.0°F0.6°C 31.7°F-0.2°C 95% Calm Calm -- 26.41 in894.3 mb - 0.00 in0.0 mm 0.00 in0.0 mm
12:10 AM 33.0°F0.6°C 31.7°F-0.2°C 95% Calm Calm -- 26.41 in894.3 mb - 0.00 in0.0 mm 0.00 in0.0 mm
12:15 AM 33.0°F0.6°C 31.7°F-0.2°C 95% Calm Calm -- 26.41 in894.3 mb - 0.00 in0.0 mm 0.00 in0.0 mm
12:20 AM 33.0°F0.6°C 31.7°F-0.2°C 95% Calm Calm -- 26.41 in894.3 mb - 0.00 in0.0 mm 0.00 in0.0 mm
12:25 AM 33.0°F0.6°C 31.7°F-0.2°C 95% Calm Calm -- 26.41 in894.3 mb - 0.00 in0.0 mm 0.00 in0.0 mm
12:30 AM 33.0°F0.6°C 31.7°F-0.2°C 95% Calm Calm -- 26.41 in894.3 mb - 0.00 in0.0 mm 0.00 in0.0 mm
12:35 AM 33.0°F0.6°C 31.7°F-0.2°C 95% Calm Calm -- 26.41 in894.3 mb - 0.00 in0.0 mm 0.00 in0.0 mm
12:40 AM 33.0°F0.6°C 31.7°F-0.2°C 95% Calm Calm -- 26.41 in894.3 mb - 0.00 in0.0 mm 0.00 in0.0 mm
12:45 AM 33.0°F0.6°C 31.7°F-0.2°C 95% Calm Calm -- 26.41 in894.3 mb - 0.00 in0.0 mm 0.00 in0.0 mm
12:50 AM 33.0°F0.6°C 31.7°F-0.2°C 95% Calm Calm -- 26.41 in894.3 mb - 0.00 in0.0 mm 0.00 in0.0 mm
12:55 AM 33.0°F0.6°C 31.7°F-0.2°C 95% Calm Calm -- 26.41 in894.3 mb - 0.00 in0.0 mm 0.00 in0.0 mm
01:00 AM 33.0°F0.6°C 31.7°F-0.2°C 95% Calm Calm -- 26.41 in894.3 mb - 0.00 in0.0 mm 0.00 in0.0 mm
01:10 AM 32.0°F0.0°C 30.7°F-0.7°C 95% Calm Calm -- 26.41 in894.3 mb - 0.00 in0.0 mm 0.00 in0.0 mm
01:15 AM 32.0°F0.0°C 31.0°F-0.6°C 96% Calm Calm -- 26.42 in894.7 mb - 0.00 in0.0 mm 0.00 in0.0 mm
01:20 AM 32.0°F0.0°C 31.0°F-0.6°C 96% Calm Calm -- 26.42 in894.7 mb - 0.00 in0.0 mm 0.00 in0.0 mm
01:25 AM 32.0°F0.0°C 31.0°F-0.6°C 96% Calm Calm -- 26.42 in894.7 mb - 0.00 in0.0 mm 0.00 in0.0 mm
01:30 AM 32.0°F0.0°C 31.0°F-0.6°C 96% Calm Calm -- 26.43 in895.0 mb - 0.00 in0.0 mm 0.00 in0.0 mm
01:35 AM 32.0°F0.0°C 30.7°F-0.7°C 95% Calm Calm -- 26.43 in895.0 mb - 0.00 in0.0 mm 0.00 in0.0 mm
01:40 AM 32.0°F0.0°C 31.2°F-0.4°C 97% Calm Calm -- 26.42 in894.7 mb - 0.00 in0.0 mm 0.00 in0.0 mm
01:45 AM 32.0°F0.0°C 31.0°F-0.6°C 96% Calm Calm -- 26.43 in895.0 mb - 0.00 in0.0 mm 0.00 in0.0 mm
01:50 AM 32.0°F0.0°C 31.2°F-0.4°C 97% Calm Calm -- 26.43 in895.0 mb - 0.00 in0.0 mm 0.00 in0.0 mm
01:55 AM 33.0°F0.6°C 32.2°F0.1°C 97% Calm Calm -- 26.43 in895.0 mb - 0.00 in0.0 mm 0.00 in0.0 mm
02:00 AM 33.0°F0.6°C 32.2°F0.1°C 97% Calm Calm -- 26.43 in895.0 mb - 0.00 in0.0 mm 0.00 in0.0 mm
02:10 AM 33.0°F0.6°C 32.2°F0.1°C 97% Calm Calm -- 26.44 in895.4 mb - 0.00 in0.0 mm 0.00 in0.0 mm
02:15 AM 32.0°F0.0°C 31.2°F-0.4°C 97% Calm Calm -- 26.43 in895.0 mb - 0.00 in0.0 mm 0.00 in0.0 mm
02:20 AM 32.0°F0.0°C 31.2°F-0.4°C 97% Calm Calm -- 26.43 in895.0 mb - 0.00 in0.0 mm 0.00 in0.0 mm
02:25 AM 32.0°F0.0°C 31.2°F-0.4°C 97% Calm Calm -- 26.42 in894.7 mb - 0.00 in0.0 mm 0.00 in0.0 mm
02:30 AM 33.0°F0.6°C 32.2°F0.1°C 97% Calm Calm -- 26.42 in894.7 mb - 0.00 in0.0 mm 0.00 in0.0 mm
02:35 AM 32.0°F0.0°C 31.2°F-0.4°C 97% Calm Calm -- 26.42 in894.7 mb - 0.00 in0.0 mm 0.00 in0.0 mm
02:40 AM 32.0°F0.0°C 31.5°F-0.3°C 98% Calm Calm -- 26.42 in894.7 mb - 0.00 in0.0 mm 0.00 in0.0 mm
02:45 AM 33.0°F0.6°C 32.2°F0.1°C 97% Calm Calm -- 26.42 in894.7 mb - 0.00 in0.0 mm 0.00 in0.0 mm
02:50 AM 33.0°F0.6°C 32.0°F0.0°C 96% Calm Calm -- 26.43 in895.0 mb - 0.00 in0.0 mm 0.00 in0.0 mm
02:55 AM 33.0°F0.6°C 32.2°F0.1°C 97% Calm Calm -- 26.42 in894.7 mb - 0.00 in0.0 mm 0.00 in0.0 mm
03:00 AM 33.0°F0.6°C 32.2°F0.1°C 97% Calm Calm -- 26.42 in894.7 mb - 0.00 in0.0 mm 0.00 in0.0 mm
03:10 AM 33.0°F0.6°C 32.0°F0.0°C 96% Calm Calm -- 26.42 in894.7 mb - 0.00 in0.0 mm 0.00 in0.0 mm
03:15 AM 33.0°F0.6°C 32.0°F0.0°C 96% Calm Calm -- 26.42 in894.7 mb - 0.00 in0.0 mm 0.00 in0.0 mm
03:20 AM 33.0°F0.6°C 32.0°F0.0°C 96% Calm Calm -- 26.43 in895.0 mb - 0.00 in0.0 mm 0.00 in0.0 mm
03:25 AM 33.0°F0.6°C 32.2°F0.1°C 97% Calm Calm -- 26.43 in895.0 mb - 0.00 in0.0 mm 0.00 in0.0 mm
03:30 AM 33.0°F0.6°C 32.2°F0.1°C 97% Calm Calm -- 26.44 in895.4 mb - 0.00 in0.0 mm 0.00 in0.0 mm
03:35 AM 33.0°F0.6°C 32.2°F0.1°C 97% Calm Calm -- 26.42 in894.7 mb - 0.00 in0.0 mm 0.00 in0.0 mm
03:40 AM 33.0°F0.6°C 32.0°F0.0°C 96% Calm Calm -- 26.42 in894.7 mb - 0.00 in0.0 mm 0.00 in0.0 mm
03:45 AM 33.0°F0.6°C 31.7°F-0.2°C 95% Calm Calm -- 26.43 in895.0 mb - 0.00 in0.0 mm 0.00 in0.0 mm
03:50 AM 33.0°F0.6°C 31.5°F-0.3°C 94% Calm Calm -- 26.43 in895.0 mb - 0.00 in0.0 mm 0.00 in0.0 mm
03:55 AM 33.0°F0.6°C 31.5°F-0.3°C 94% Calm Calm -- 26.42 in894.7 mb - 0.00 in0.0 mm 0.00 in0.0 mm
04:00 AM 33.0°F0.6°C 32.0°F0.0°C 96% Calm Calm -- 26.43 in895.0 mb - 0.00 in0.0 mm 0.00 in0.0 mm
04:10 AM 33.0°F0.6°C 32.2°F0.1°C 97% Calm Calm -- 26.43 in895.0 mb - 0.00 in0.0 mm 0.00 in0.0 mm
04:15 AM 32.0°F0.0°C 31.0°F-0.6°C 96% Calm Calm -- 26.44 in895.4 mb - 0.00 in0.0 mm 0.00 in0.0 mm
04:20 AM 33.0°F0.6°C 32.0°F0.0°C 96% Calm Calm -- 26.44 in895.4 mb - 0.01 in0.3 mm 0.01 in0.3 mm
04:25 AM 33.0°F0.6°C 31.7°F-0.2°C 95% Calm Calm -- 26.44 in895.4 mb - 0.01 in0.3 mm 0.01 in0.3 mm
04:30 AM 33.0°F0.6°C 31.5°F-0.3°C 94% Calm Calm -- 26.45 in895.7 mb - 0.01 in0.3 mm 0.01 in0.3 mm
04:35 AM 33.0°F0.6°C 31.7°F-0.2°C 95% Calm Calm -- 26.45 in895.7 mb - 0.01 in0.3 mm 0.01 in0.3 mm
04:40 AM 33.0°F0.6°C 31.7°F-0.2°C 95% Calm Calm -- 26.45 in895.7 mb - 0.01 in0.3 mm 0.01 in0.3 mm
04:45 AM 33.0°F0.6°C 32.0°F0.0°C 96% Calm Calm -- 26.44 in895.4 mb - 0.01 in0.3 mm 0.01 in0.3 mm
04:50 AM 33.0°F0.6°C 32.2°F0.1°C 97% Calm Calm -- 26.45 in895.7 mb - 0.01 in0.3 mm 0.01 in0.3 mm
04:55 AM 33.0°F0.6°C 32.0°F0.0°C 96% Calm Calm -- 26.46 in896.0 mb - 0.01 in0.3 mm 0.01 in0.3 mm
05:00 AM 33.0°F0.6°C 32.0°F0.0°C 96% Calm Calm -- 26.46 in896.0 mb - 0.01 in0.3 mm 0.01 in0.3 mm
05:10 AM 33.0°F0.6°C 32.0°F0.0°C 96% Calm Calm 1.2 mph1.9 kmh 26.46 in896.0 mb - 0.01 in0.3 mm 0.01 in0.3 mm
05:15 AM 33.0°F0.6°C 32.0°F0.0°C 96% Calm Calm -- 26.46 in896.0 mb - 0.01 in0.3 mm 0.01 in0.3 mm
05:20 AM 33.0°F0.6°C 31.7°F-0.2°C 95% Calm Calm -- 26.47 in896.4 mb - 0.00 in0.0 mm 0.01 in0.3 mm
05:25 AM 33.0°F0.6°C 31.7°F-0.2°C 95% Calm Calm -- 26.46 in896.0 mb - 0.01 in0.3 mm 0.02 in0.5 mm
05:30 AM 33.0°F0.6°C 31.7°F-0.2°C 95% Calm Calm -- 26.46 in896.0 mb - 0.01 in0.3 mm 0.02 in0.5 mm
05:35 AM 33.0°F0.6°C 31.7°F-0.2°C 95% Calm Calm -- 26.46 in896.0 mb - 0.01 in0.3 mm 0.02 in0.5 mm
05:40 AM 33.0°F0.6°C 32.0°F0.0°C 96% Calm Calm -- 26.47 in896.4 mb - 0.01 in0.3 mm 0.02 in0.5 mm
05:45 AM 33.0°F0.6°C 32.0°F0.0°C 96% Calm Calm -- 26.46 in896.0 mb - 0.01 in0.3 mm 0.02 in0.5 mm
05:50 AM 33.0°F0.6°C 32.0°F0.0°C 96% Calm Calm -- 26.46 in896.0 mb - 0.01 in0.3 mm 0.02 in0.5 mm
05:55 AM 33.0°F0.6°C 31.7°F-0.2°C 95% Calm Calm -- 26.47 in896.4 mb - 0.01 in0.3 mm 0.02 in0.5 mm
06:00 AM 33.0°F0.6°C 31.7°F-0.2°C 95% Calm Calm -- 26.47 in896.4 mb - 0.01 in0.3 mm 0.02 in0.5 mm
06:10 AM 33.0°F0.6°C 32.0°F0.0°C 96% Calm Calm -- 26.47 in896.4 mb - 0.01 in0.3 mm 0.02 in0.5 mm
06:15 AM 33.0°F0.6°C 32.0°F0.0°C 96% Calm Calm -- 26.48 in896.7 mb - 0.01 in0.3 mm 0.02 in0.5 mm
06:20 AM 33.0°F0.6°C 32.0°F0.0°C 96% Calm Calm -- 26.49 in897.1 mb - 0.01 in0.3 mm 0.02 in0.5 mm
06:25 AM 33.0°F0.6°C 32.0°F0.0°C 96% Calm Calm -- 26.48 in896.7 mb - 0.01 in0.3 mm 0.02 in0.5 mm
06:30 AM 33.0°F0.6°C 31.5°F-0.3°C 94% Calm Calm -- 26.48 in896.7 mb - 0.00 in0.0 mm 0.02 in0.5 mm
06:35 AM 33.0°F0.6°C 31.7°F-0.2°C 95% Calm Calm -- 26.48 in896.7 mb - 0.01 in0.3 mm 0.03 in0.8 mm
06:40 AM 33.0°F0.6°C 31.7°F-0.2°C 95% Calm Calm -- 26.49 in897.1 mb - 0.01 in0.3 mm 0.03 in0.8 mm
06:45 AM 33.0°F0.6°C 31.7°F-0.2°C 95% Calm Calm -- 26.49 in897.1 mb - 0.01 in0.3 mm 0.03 in0.8 mm
06:50 AM 33.0°F0.6°C 31.7°F-0.2°C 95% Calm Calm -- 26.49 in897.1 mb - 0.01 in0.3 mm 0.03 in0.8 mm
06:55 AM 33.0°F0.6°C 31.7°F-0.2°C 95% Calm Calm -- 26.49 in897.1 mb - 0.01 in0.3 mm 0.03 in0.8 mm
07:00 AM 33.0°F0.6°C 32.0°F0.0°C 96% Calm Calm -- 26.50 in897.4 mb - 0.01 in0.3 mm 0.03 in0.8 mm
07:10 AM 33.0°F0.6°C 31.7°F-0.2°C 95% Calm Calm -- 26.49 in897.1 mb - 0.01 in0.3 mm 0.03 in0.8 mm
07:15 AM 33.0°F0.6°C 32.0°F0.0°C 96% Calm Calm -- 26.49 in897.1 mb - 0.01 in0.3 mm 0.03 in0.8 mm
07:20 AM 33.0°F0.6°C 32.0°F0.0°C 96% Calm Calm -- 26.49 in897.1 mb - 0.01 in0.3 mm 0.03 in0.8 mm
07:25 AM 33.0°F0.6°C 32.0°F0.0°C 96% Calm Calm -- 26.49 in897.1 mb - 0.01 in0.3 mm 0.03 in0.8 mm
07:30 AM 33.0°F0.6°C 32.0°F0.0°C 96% Calm Calm -- 26.49 in897.1 mb - 0.01 in0.3 mm 0.03 in0.8 mm
07:35 AM 33.0°F0.6°C 32.0°F0.0°C 96% Calm Calm -- 26.48 in896.7 mb - 0.01 in0.3 mm 0.04 in1.0 mm
07:40 AM 34.8°F1.6°C 33.0°F0.6°C 93% Calm Calm -- 26.49 in897.1 mb - 0.01 in0.3 mm 0.04 in1.0 mm
07:45 AM 35.0°F1.7°C 33.2°F0.7°C 93% Calm Calm 2.3 mph3.7 kmh 26.49 in897.1 mb - 0.01 in0.3 mm 0.04 in1.0 mm
07:50 AM 34.0°F1.1°C 32.2°F0.1°C 93% 1.2 mph NW1.9 kmh NW 2.3 mph3.7 kmh 26.49 in897.1 mb - 0.01 in0.3 mm 0.04 in1.0 mm
07:55 AM 34.0°F1.1°C 32.5°F0.3°C 94% 1.2 mph NNW1.9 kmh NNW 2.3 mph3.7 kmh 26.48 in896.7 mb - 0.01 in0.3 mm 0.04 in1.0 mm
08:00 AM 35.0°F1.7°C 32.6°F0.3°C 91% Calm Calm -- 26.47 in896.4 mb - 0.02 in0.5 mm 0.05 in1.3 mm
08:10 AM 35.0°F1.7°C 32.9°F0.5°C 92% Calm Calm -- 26.47 in896.4 mb - 0.02 in0.5 mm 0.05 in1.3 mm
08:15 AM 35.0°F1.7°C 32.9°F0.5°C 92% Calm Calm -- 26.47 in896.4 mb - 0.03 in0.8 mm 0.06 in1.5 mm
08:20 AM 35.0°F1.7°C 33.2°F0.7°C 93% Calm Calm -- 26.47 in896.4 mb - 0.03 in0.8 mm 0.06 in1.5 mm
08:25 AM 35.0°F1.7°C 32.9°F0.5°C 92% Calm Calm -- 26.46 in896.0 mb - 0.03 in0.8 mm 0.06 in1.5 mm
08:30 AM 35.1°F1.7°C 33.0°F0.6°C 92% Calm Calm -- 26.46 in896.0 mb - 0.04 in1.0 mm 0.07 in1.8 mm
08:35 AM 36.0°F2.2°C 33.9°F1.1°C 92% Calm Calm -- 26.46 in896.0 mb - 0.03 in0.8 mm 0.07 in1.8 mm
08:40 AM 36.0°F2.2°C 33.6°F0.9°C 91% Calm Calm 1.2 mph1.9 kmh 26.46 in896.0 mb - 0.03 in0.8 mm 0.07 in1.8 mm
08:45 AM 37.0°F2.8°C 33.8°F1.0°C 88% Calm Calm -- 26.45 in895.7 mb - 0.04 in1.0 mm 0.08 in2.0 mm
08:50 AM 38.0°F3.3°C 32.7°F0.4°C 81% 2.3 mph WSW3.7 kmh WSW 3.5 mph5.6 kmh 26.46 in896.0 mb - 0.04 in1.0 mm 0.08 in2.0 mm
08:55 AM 39.0°F3.9°C 32.4°F0.2°C 77% Calm Calm -- 26.44 in895.4 mb - 0.05 in1.3 mm 0.09 in2.3 mm
09:00 AM 40.0°F4.4°C 32.0°F0.0°C 73% Calm Calm -- 26.44 in895.4 mb - 0.04 in1.0 mm 0.09 in2.3 mm
09:10 AM 42.0°F5.6°C 33.6°F0.9°C 72% Calm Calm 1.2 mph1.9 kmh 26.44 in895.4 mb - 0.06 in1.5 mm 0.11 in2.8 mm
09:15 AM 42.0°F5.6°C 33.3°F0.7°C 71% Calm Calm -- 26.44 in895.4 mb - 0.05 in1.3 mm 0.11 in2.8 mm
09:20 AM 41.0°F5.0°C 32.0°F0.0°C 70% 3.5 mph NNW5.6 kmh NNW 3.5 mph5.6 kmh 26.43 in895.0 mb - 0.06 in1.5 mm 0.12 in3.0 mm
09:25 AM 42.0°F5.6°C 32.9°F0.5°C 70% 1.2 mph N1.9 kmh N 1.2 mph1.9 kmh 26.43 in895.0 mb - 0.07 in1.8 mm 0.13 in3.3 mm
09:30 AM 43.0°F6.1°C 33.2°F0.7°C 68% Calm Calm -- 26.43 in895.0 mb - 0.08 in2.0 mm 0.14 in3.6 mm
09:35 AM 42.0°F5.6°C 33.3°F0.7°C 71% Calm Calm -- 26.43 in895.0 mb - 0.08 in2.0 mm 0.15 in3.8 mm
09:40 AM 42.0°F5.6°C 34.0°F1.1°C 73% Calm Calm 1.2 mph1.9 kmh 26.42 in894.7 mb - 0.09 in2.3 mm 0.16 in4.1 mm
09:45 AM 43.0°F6.1°C 33.2°F0.7°C 68% 2.3 mph NE3.7 kmh NE 3.5 mph5.6 kmh 26.42 in894.7 mb - 0.09 in2.3 mm 0.17 in4.3 mm
09:50 AM 43.9°F6.6°C 34.4°F1.3°C 69% Calm Calm 3.5 mph5.6 kmh 26.42 in894.7 mb - 0.09 in2.3 mm 0.17 in4.3 mm
09:55 AM 44.3°F6.8°C 34.8°F1.6°C 69% Calm Calm 2.3 mph3.7 kmh 26.42 in894.7 mb - 0.09 in2.3 mm 0.18 in4.6 mm
10:00 AM 45.0°F7.2°C 35.4°F1.9°C 69% 1.2 mph WNW1.9 kmh WNW 2.3 mph3.7 kmh 26.43 in895.0 mb - 0.09 in2.3 mm 0.18 in4.6 mm
10:10 AM 45.0°F7.2°C 36.2°F2.3°C 71% Calm Calm 1.2 mph1.9 kmh 26.42 in894.7 mb - 0.08 in2.0 mm 0.18 in4.6 mm
10:15 AM 46.0°F7.8°C 36.4°F2.4°C 69% Calm Calm -- 26.41 in894.3 mb - 0.07 in1.8 mm 0.18 in4.6 mm
10:20 AM 47.0°F8.3°C 38.1°F3.4°C 71% 1.2 mph N1.9 kmh N 1.2 mph1.9 kmh 26.41 in894.3 mb - 0.06 in1.5 mm 0.18 in4.6 mm
10:25 AM 47.0°F8.3°C 38.8°F3.8°C 73% 1.2 mph NW1.9 kmh NW 2.3 mph3.7 kmh 26.42 in894.7 mb - 0.05 in1.3 mm 0.18 in4.6 mm
10:30 AM 47.0°F8.3°C 37.0°F2.8°C 68% 2.3 mph NW3.7 kmh NW 2.3 mph3.7 kmh 26.42 in894.7 mb - 0.04 in1.0 mm 0.18 in4.6 mm
10:35 AM 47.7°F8.7°C 37.2°F2.9°C 67% 1.2 mph NW1.9 kmh NW 2.3 mph3.7 kmh 26.41 in894.3 mb - 0.03 in0.8 mm 0.18 in4.6 mm
10:40 AM 48.0°F8.9°C 37.6°F3.1°C 67% 1.2 mph NNW1.9 kmh NNW 3.5 mph5.6 kmh 26.41 in894.3 mb - 0.02 in0.5 mm 0.18 in4.6 mm
10:45 AM 48.0°F8.9°C 37.2°F2.9°C 66% 3.5 mph W5.6 kmh W 3.5 mph5.6 kmh 26.41 in894.3 mb - 0.01 in0.3 mm 0.18 in4.6 mm
10:50 AM 47.0°F8.3°C 35.8°F2.1°C 65% 2.3 mph NE3.7 kmh NE 2.3 mph3.7 kmh 26.41 in894.3 mb - 0.01 in0.3 mm 0.18 in4.6 mm
10:55 AM 49.0°F9.4°C 37.3°F2.9°C 64% 1.2 mph N1.9 kmh N 1.2 mph1.9 kmh 26.41 in894.3 mb - 0.01 in0.3 mm 0.18 in4.6 mm
11:00 AM 50.0°F10.0°C 37.9°F3.3°C 63% 2.3 mph NNW3.7 kmh NNW 2.3 mph3.7 kmh 26.41 in894.3 mb - 0.00 in0.0 mm 0.18 in4.6 mm
11:10 AM 50.0°F10.0°C 38.3°F3.5°C 64% 3.5 mph WSW5.6 kmh WSW 5.8 mph9.3 kmh 26.41 in894.3 mb - 0.00 in0.0 mm 0.18 in4.6 mm
11:15 AM 50.0°F10.0°C 37.5°F3.1°C 62% 1.2 mph N1.9 kmh N 1.2 mph1.9 kmh 26.41 in894.3 mb - 0.00 in0.0 mm 0.18 in4.6 mm
11:20 AM 50.4°F10.2°C 37.5°F3.1°C 61% 2.3 mph NW3.7 kmh NW 5.8 mph9.3 kmh 26.41 in894.3 mb - 0.00 in0.0 mm 0.18 in4.6 mm
11:25 AM 51.0°F10.6°C 37.6°F3.1°C 60% 3.5 mph NW5.6 kmh NW 5.8 mph9.3 kmh 26.40 in894.0 mb - 0.00 in0.0 mm 0.18 in4.6 mm
11:30 AM 51.0°F10.6°C 39.2°F4.0°C 64% 3.5 mph WNW5.6 kmh WNW 3.5 mph5.6 kmh 26.39 in893.7 mb - 0.00 in0.0 mm 0.18 in4.6 mm
11:35 AM 51.0°F10.6°C 38.0°F3.3°C 61% 3.5 mph W5.6 kmh W 5.8 mph9.3 kmh 26.39 in893.7 mb - 0.00 in0.0 mm 0.18 in4.6 mm
11:40 AM 50.0°F10.0°C 36.2°F2.3°C 59% 2.3 mph N3.7 kmh N 3.5 mph5.6 kmh 26.39 in893.7 mb - 0.00 in0.0 mm 0.18 in4.6 mm
11:45 AM 51.0°F10.6°C 37.6°F3.1°C 60% 3.5 mph NNW5.6 kmh NNW 3.5 mph5.6 kmh 26.39 in893.7 mb - 0.00 in0.0 mm 0.18 in4.6 mm
11:50 AM 50.0°F10.0°C 36.2°F2.3°C 59% 1.2 mph N1.9 kmh N 2.3 mph3.7 kmh 26.39 in893.7 mb - 0.00 in0.0 mm 0.18 in4.6 mm
11:55 AM 51.0°F10.6°C 37.6°F3.1°C 60% 1.2 mph N1.9 kmh N 1.2 mph1.9 kmh 26.39 in893.7 mb - 0.00 in0.0 mm 0.18 in4.6 mm
12:00 PM 51.0°F10.6°C 37.6°F3.1°C 60% Calm Calm 1.2 mph1.9 kmh 26.39 in893.7 mb - 0.00 in0.0 mm 0.18 in4.6 mm
12:10 PM 50.0°F10.0°C 37.1°F2.8°C 61% 1.2 mph NNW1.9 kmh NNW 2.3 mph3.7 kmh 26.39 in893.7 mb - 0.00 in0.0 mm 0.18 in4.6 mm
12:15 PM 51.0°F10.6°C 38.0°F3.3°C 61% 3.5 mph W5.6 kmh W 3.5 mph5.6 kmh 26.39 in893.7 mb - 0.00 in0.0 mm 0.18 in4.6 mm
12:20 PM 52.0°F11.1°C 38.5°F3.6°C 60% 3.5 mph NW5.6 kmh NW 3.5 mph5.6 kmh 26.39 in893.7 mb - 0.00 in0.0 mm 0.18 in4.6 mm
12:25 PM 51.0°F10.6°C 36.7°F2.6°C 58% 2.3 mph NW3.7 kmh NW 3.5 mph5.6 kmh 26.39 in893.7 mb - 0.00 in0.0 mm 0.18 in4.6 mm
12:30 PM 52.0°F11.1°C 39.8°F4.3°C 63% 1.2 mph NNW1.9 kmh NNW 1.2 mph1.9 kmh 26.39 in893.7 mb - 0.00 in0.0 mm 0.18 in4.6 mm
12:35 PM 52.0°F11.1°C 38.1°F3.4°C 59% 2.3 mph WNW3.7 kmh WNW 3.5 mph5.6 kmh 26.39 in893.7 mb - 0.00 in0.0 mm 0.18 in4.6 mm
12:40 PM 53.0°F11.7°C 37.7°F3.2°C 56% 2.3 mph W3.7 kmh W 3.5 mph5.6 kmh 26.39 in893.7 mb - 0.00 in0.0 mm 0.18 in4.6 mm
12:45 PM 53.0°F11.7°C 38.2°F3.4°C 57% 2.3 mph W3.7 kmh W 3.5 mph5.6 kmh 26.39 in893.7 mb - 0.00 in0.0 mm 0.18 in4.6 mm
12:50 PM 52.0°F11.1°C 37.7°F3.2°C 58% 3.5 mph W5.6 kmh W 3.5 mph5.6 kmh 26.39 in893.7 mb - 0.00 in0.0 mm 0.18 in4.6 mm
12:55 PM 52.0°F11.1°C 38.1°F3.4°C 59% 3.5 mph WSW5.6 kmh WSW 3.5 mph5.6 kmh 26.38 in893.3 mb - 0.00 in0.0 mm 0.18 in4.6 mm
01:00 PM 52.0°F11.1°C 37.7°F3.2°C 58% 1.2 mph NW1.9 kmh NW 1.2 mph1.9 kmh 26.39 in893.7 mb - 0.00 in0.0 mm 0.18 in4.6 mm
01:10 PM 54.0°F12.2°C 37.2°F2.9°C 53% 2.3 mph W3.7 kmh W 3.5 mph5.6 kmh 26.39 in893.7 mb - 0.00 in0.0 mm 0.18 in4.6 mm
01:15 PM 53.0°F11.7°C 39.0°F3.9°C 59% 1.2 mph WNW1.9 kmh WNW 2.3 mph3.7 kmh 26.39 in893.7 mb - 0.00 in0.0 mm 0.18 in4.6 mm
01:20 PM 54.0°F12.2°C 39.1°F3.9°C 57% 2.3 mph N3.7 kmh N 2.3 mph3.7 kmh 26.38 in893.3 mb - 0.00 in0.0 mm 0.18 in4.6 mm
01:25 PM 54.0°F12.2°C 37.7°F3.2°C 54% Calm Calm 2.3 mph3.7 kmh 26.38 in893.3 mb - 0.00 in0.0 mm 0.18 in4.6 mm
01:30 PM 54.0°F12.2°C 38.2°F3.4°C 55% 1.2 mph NNW1.9 kmh NNW 3.5 mph5.6 kmh 26.38 in893.3 mb - 0.00 in0.0 mm 0.18 in4.6 mm
01:35 PM 53.0°F11.7°C 37.7°F3.2°C 56% 3.5 mph NW5.6 kmh NW 3.5 mph5.6 kmh 26.38 in893.3 mb - 0.00 in0.0 mm 0.18 in4.6 mm
01:40 PM 53.0°F11.7°C 38.2°F3.4°C 57% 1.2 mph NNW1.9 kmh NNW 1.2 mph1.9 kmh 26.38 in893.3 mb - 0.00 in0.0 mm 0.18 in4.6 mm
01:45 PM 54.0°F12.2°C 39.1°F3.9°C 57% 2.3 mph NW3.7 kmh NW 3.5 mph5.6 kmh 26.38 in893.3 mb - 0.00 in0.0 mm 0.18 in4.6 mm
01:50 PM 53.0°F11.7°C 36.8°F2.7°C 54% 2.3 mph NW3.7 kmh NW 3.5 mph5.6 kmh 26.38 in893.3 mb - 0.00 in0.0 mm 0.18 in4.6 mm
01:55 PM 53.0°F11.7°C 36.8°F2.7°C 54% 1.2 mph N1.9 kmh N 1.2 mph1.9 kmh 26.38 in893.3 mb - 0.00 in0.0 mm 0.18 in4.6 mm
02:00 PM 55.0°F12.8°C 38.2°F3.4°C 53% Calm Calm -- 26.38 in893.3 mb - 0.00 in0.0 mm 0.18 in4.6 mm
02:10 PM 56.0°F13.3°C 38.6°F3.7°C 52% Calm Calm 1.2 mph1.9 kmh 26.36 in892.7 mb - 0.00 in0.0 mm 0.18 in4.6 mm
02:15 PM 56.0°F13.3°C 38.6°F3.7°C 52% Calm Calm 1.2 mph1.9 kmh 26.36 in892.7 mb - 0.00 in0.0 mm 0.18 in4.6 mm
02:20 PM 55.0°F12.8°C 38.2°F3.4°C 53% Calm Calm -- 26.36 in892.7 mb - 0.00 in0.0 mm 0.18 in4.6 mm
02:25 PM 55.0°F12.8°C 38.6°F3.7°C 54% Calm Calm -- 26.36 in892.7 mb - 0.00 in0.0 mm 0.18 in4.6 mm
02:30 PM 57.0°F13.9°C 38.5°F3.6°C 50% 2.3 mph WNW3.7 kmh WNW 2.3 mph3.7 kmh 26.35 in892.3 mb - 0.00 in0.0 mm 0.18 in4.6 mm
02:35 PM 57.0°F13.9°C 38.5°F3.6°C 50% Calm Calm -- 26.36 in892.7 mb - 0.00 in0.0 mm 0.18 in4.6 mm
02:40 PM 56.0°F13.3°C 38.6°F3.7°C 52% Calm Calm -- 26.36 in892.7 mb - 0.00 in0.0 mm 0.18 in4.6 mm
02:45 PM 56.0°F13.3°C 37.1°F2.8°C 49% 2.3 mph W3.7 kmh W 3.5 mph5.6 kmh 26.36 in892.7 mb - 0.00 in0.0 mm 0.18 in4.6 mm
02:50 PM 55.0°F12.8°C 38.6°F3.7°C 54% Calm Calm 1.2 mph1.9 kmh 26.36 in892.7 mb - 0.00 in0.0 mm 0.18 in4.6 mm
02:55 PM 55.0°F12.8°C 36.2°F2.3°C 49% 1.2 mph WNW1.9 kmh WNW 2.3 mph3.7 kmh 26.36 in892.7 mb - 0.00 in0.0 mm 0.18 in4.6 mm
03:00 PM 55.3°F12.9°C 35.4°F1.9°C 47% 2.3 mph W3.7 kmh W 2.3 mph3.7 kmh 26.36 in892.7 mb - 0.00 in0.0 mm 0.18 in4.6 mm
03:10 PM 57.0°F13.9°C 36.4°F2.4°C 46% 2.3 mph SW3.7 kmh SW 3.5 mph5.6 kmh 26.36 in892.7 mb - 0.00 in0.0 mm 0.18 in4.6 mm
03:15 PM 58.0°F14.4°C 33.8°F1.0°C 40% 2.3 mph NW3.7 kmh NW 3.5 mph5.6 kmh 26.35 in892.3 mb - 0.00 in0.0 mm 0.18 in4.6 mm
03:20 PM 57.0°F13.9°C 34.1°F1.2°C 42% 2.3 mph WNW3.7 kmh WNW 3.5 mph5.6 kmh 26.35 in892.3 mb - 0.00 in0.0 mm 0.18 in4.6 mm
03:25 PM 57.0°F13.9°C 34.7°F1.5°C 43% 2.3 mph NNE3.7 kmh NNE 2.3 mph3.7 kmh 26.35 in892.3 mb - 0.00 in0.0 mm 0.18 in4.6 mm
03:30 PM 57.0°F13.9°C 35.3°F1.8°C 44% Calm Calm 1.2 mph1.9 kmh 26.36 in892.7 mb - 0.00 in0.0 mm 0.18 in4.6 mm
03:35 PM 58.0°F14.4°C 35.6°F2.0°C 43% Calm Calm 1.2 mph1.9 kmh 26.36 in892.7 mb - 0.00 in0.0 mm 0.18 in4.6 mm
03:40 PM 58.0°F14.4°C 35.0°F1.7°C 42% Calm Calm 1.2 mph1.9 kmh 26.36 in892.7 mb - 0.00 in0.0 mm 0.18 in4.6 mm
03:45 PM 58.0°F14.4°C 34.4°F1.3°C 41% 1.2 mph NW1.9 kmh NW 1.2 mph1.9 kmh 26.35 in892.3 mb - 0.00 in0.0 mm 0.18 in4.6 mm
03:50 PM 59.0°F15.0°C 34.1°F1.2°C 39% 2.3 mph NW3.7 kmh NW 3.5 mph5.6 kmh 26.35 in892.3 mb - 0.00 in0.0 mm 0.18 in4.6 mm
03:55 PM 59.0°F15.0°C 35.3°F1.8°C 41% 2.3 mph NNE3.7 kmh NNE 2.3 mph3.7 kmh 26.35 in892.3 mb - 0.00 in0.0 mm 0.18 in4.6 mm
04:00 PM 58.0°F14.4°C 33.2°F0.7°C 39% 2.3 mph W3.7 kmh W 3.5 mph5.6 kmh 26.36 in892.7 mb - 0.00 in0.0 mm 0.18 in4.6 mm
04:10 PM 60.0°F15.6°C 34.3°F1.3°C 38% 1.2 mph NE1.9 kmh NE 2.3 mph3.7 kmh 26.35 in892.3 mb - 0.00 in0.0 mm 0.18 in4.6 mm
04:15 PM 60.0°F15.6°C 32.9°F0.5°C 36% 2.3 mph N3.7 kmh N 2.3 mph3.7 kmh 26.35 in892.3 mb - 0.00 in0.0 mm 0.18 in4.6 mm
04:20 PM 60.0°F15.6°C 33.6°F0.9°C 37% 1.2 mph N1.9 kmh N 2.3 mph3.7 kmh 26.35 in892.3 mb - 0.00 in0.0 mm 0.18 in4.6 mm
04:25 PM 60.0°F15.6°C 33.6°F0.9°C 37% 1.2 mph 1.9 kmh 3.5 mph5.6 kmh 26.35 in892.3 mb - 0.00 in0.0 mm 0.18 in4.6 mm
04:30 PM 60.0°F15.6°C 32.9°F0.5°C 36% 2.3 mph NW3.7 kmh NW 3.5 mph5.6 kmh 26.35 in892.3 mb - 0.00 in0.0 mm 0.18 in4.6 mm
04:35 PM 60.0°F15.6°C 35.0°F1.7°C 39% 2.3 mph SE3.7 kmh SE 3.5 mph5.6 kmh 26.37 in893.0 mb - 0.00 in0.0 mm 0.18 in4.6 mm
04:40 PM 60.0°F15.6°C 33.6°F0.9°C 37% 1.2 mph WNW1.9 kmh WNW 1.2 mph1.9 kmh 26.35 in892.3 mb - 0.00 in0.0 mm 0.18 in4.6 mm
04:45 PM 59.0°F15.0°C 34.1°F1.2°C 39% 1.2 mph S1.9 kmh S 3.5 mph5.6 kmh 26.36 in892.7 mb - 0.00 in0.0 mm 0.18 in4.6 mm
04:50 PM 59.0°F15.0°C 33.4°F0.8°C 38% 2.3 mph E3.7 kmh E 3.5 mph5.6 kmh 26.36 in892.7 mb - 0.00 in0.0 mm 0.18 in4.6 mm
04:55 PM 58.0°F14.4°C 32.5°F0.3°C 38% Calm Calm 1.2 mph1.9 kmh 26.36 in892.7 mb - 0.00 in0.0 mm 0.18 in4.6 mm
05:00 PM 58.0°F14.4°C 32.5°F0.3°C 38% 3.5 mph NE5.6 kmh NE 6.9 mph11.1 kmh 26.36 in892.7 mb - 0.00 in0.0 mm 0.18 in4.6 mm
05:10 PM 57.0°F13.9°C 32.3°F0.2°C 39% 1.2 mph NE1.9 kmh NE 2.3 mph3.7 kmh 26.36 in892.7 mb - 0.00 in0.0 mm 0.18 in4.6 mm
05:15 PM 57.0°F13.9°C 32.3°F0.2°C 39% 2.3 mph NE3.7 kmh NE 3.5 mph5.6 kmh 26.37 in893.0 mb - 0.00 in0.0 mm 0.18 in4.6 mm
05:20 PM 58.0°F14.4°C 33.2°F0.7°C 39% 1.2 mph NE1.9 kmh NE 2.3 mph3.7 kmh 26.36 in892.7 mb - 0.00 in0.0 mm 0.18 in4.6 mm
05:25 PM 57.0°F13.9°C 31.0°F-0.6°C 37% 1.2 mph ENE1.9 kmh ENE 3.5 mph5.6 kmh 26.36 in892.7 mb - 0.00 in0.0 mm 0.18 in4.6 mm
05:30 PM 57.0°F13.9°C 31.6°F-0.2°C 38% 2.3 mph WSW3.7 kmh WSW 8.1 mph13.0 kmh 26.36 in892.7 mb - 0.00 in0.0 mm 0.18 in4.6 mm
05:35 PM 57.0°F13.9°C 31.6°F-0.2°C 38% Calm Calm 1.2 mph1.9 kmh 26.37 in893.0 mb - 0.00 in0.0 mm 0.18 in4.6 mm
05:40 PM 57.0°F13.9°C 31.0°F-0.6°C 37% 3.5 mph S5.6 kmh S 3.5 mph5.6 kmh 26.37 in893.0 mb - 0.00 in0.0 mm 0.18 in4.6 mm
05:45 PM 57.0°F13.9°C 31.0°F-0.6°C 37% 2.3 mph WNW3.7 kmh WNW 3.5 mph5.6 kmh 26.39 in893.7 mb - 0.00 in0.0 mm 0.18 in4.6 mm
05:50 PM 57.0°F13.9°C 31.0°F-0.6°C 37% 1.2 mph WNW1.9 kmh WNW 2.3 mph3.7 kmh 26.39 in893.7 mb - 0.00 in0.0 mm 0.18 in4.6 mm
05:55 PM 57.0°F13.9°C 31.0°F-0.6°C 37% 1.2 mph SE1.9 kmh SE 1.2 mph1.9 kmh 26.38 in893.3 mb - 0.00 in0.0 mm 0.18 in4.6 mm
06:00 PM 57.0°F13.9°C 30.3°F-0.9°C 36% 3.5 mph NE5.6 kmh NE 6.9 mph11.1 kmh 26.38 in893.3 mb - 0.00 in0.0 mm 0.18 in4.6 mm
06:10 PM 57.0°F13.9°C 30.3°F-0.9°C 36% Calm Calm 1.2 mph1.9 kmh 26.38 in893.3 mb - 0.00 in0.0 mm 0.18 in4.6 mm
06:15 PM 57.0°F13.9°C 30.3°F-0.9°C 36% 2.3 mph NE3.7 kmh NE 3.5 mph5.6 kmh 26.37 in893.0 mb - 0.00 in0.0 mm 0.18 in4.6 mm
06:20 PM 57.0°F13.9°C 30.3°F-0.9°C 36% 5.8 mph NE9.3 kmh NE 6.9 mph11.1 kmh 26.39 in893.7 mb - 0.00 in0.0 mm 0.18 in4.6 mm
06:25 PM 57.0°F13.9°C 31.0°F-0.6°C 37% 6.9 mph SW11.1 kmh SW 9.2 mph14.8 kmh 26.38 in893.3 mb - 0.00 in0.0 mm 0.18 in4.6 mm
06:30 PM 57.0°F13.9°C 30.3°F-0.9°C 36% 3.5 mph WSW5.6 kmh WSW 9.2 mph14.8 kmh 26.39 in893.7 mb - 0.00 in0.0 mm 0.18 in4.6 mm
06:35 PM 57.0°F13.9°C 30.3°F-0.9°C 36% 2.3 mph W3.7 kmh W 5.8 mph9.3 kmh 26.39 in893.7 mb - 0.00 in0.0 mm 0.18 in4.6 mm
06:40 PM 57.0°F13.9°C 31.0°F-0.6°C 37% 2.3 mph NNE3.7 kmh NNE 3.5 mph5.6 kmh 26.40 in894.0 mb - 0.00 in0.0 mm 0.18 in4.6 mm
06:45 PM 57.0°F13.9°C 30.3°F-0.9°C 36% 3.5 mph W5.6 kmh W 3.5 mph5.6 kmh 26.39 in893.7 mb - 0.00 in0.0 mm 0.18 in4.6 mm
06:50 PM 56.0°F13.3°C 30.1°F-1.1°C 37% 1.2 mph SW1.9 kmh SW 2.3 mph3.7 kmh 26.41 in894.3 mb - 0.00 in0.0 mm 0.18 in4.6 mm
06:55 PM 57.0°F13.9°C 30.3°F-0.9°C 36% 3.5 mph N5.6 kmh N 3.5 mph5.6 kmh 26.41 in894.3 mb - 0.00 in0.0 mm 0.18 in4.6 mm
07:00 PM 57.0°F13.9°C 30.3°F-0.9°C 36% Calm Calm 1.2 mph1.9 kmh 26.40 in894.0 mb - 0.00 in0.0 mm 0.18 in4.6 mm
07:10 PM 56.0°F13.3°C 29.4°F-1.4°C 36% 3.5 mph SW5.6 kmh SW 3.5 mph5.6 kmh 26.41 in894.3 mb - 0.00 in0.0 mm 0.18 in4.6 mm
07:15 PM 56.0°F13.3°C 29.4°F-1.4°C 36% 1.2 mph ESE1.9 kmh ESE 3.5 mph5.6 kmh 26.41 in894.3 mb - 0.00 in0.0 mm 0.18 in4.6 mm
07:20 PM 56.0°F13.3°C 29.4°F-1.4°C 36% 1.2 mph ENE1.9 kmh ENE 2.3 mph3.7 kmh 26.41 in894.3 mb - 0.00 in0.0 mm 0.18 in4.6 mm
07:25 PM 56.0°F13.3°C 29.4°F-1.4°C 36% 1.2 mph NNE1.9 kmh NNE 2.3 mph3.7 kmh 26.40 in894.0 mb - 0.00 in0.0 mm 0.18 in4.6 mm
07:30 PM 56.0°F13.3°C 29.4°F-1.4°C 36% 1.2 mph NE1.9 kmh NE 1.2 mph1.9 kmh 26.42 in894.7 mb - 0.00 in0.0 mm 0.18 in4.6 mm
07:35 PM 56.0°F13.3°C 30.1°F-1.1°C 37% Calm Calm 1.2 mph1.9 kmh 26.41 in894.3 mb - 0.00 in0.0 mm 0.18 in4.6 mm
07:40 PM 56.0°F13.3°C 28.7°F-1.8°C 35% 3.5 mph W5.6 kmh W 3.5 mph5.6 kmh 26.41 in894.3 mb - 0.00 in0.0 mm 0.18 in4.6 mm
07:45 PM 56.0°F13.3°C 28.7°F-1.8°C 35% 3.5 mph W5.6 kmh W 3.5 mph5.6 kmh 26.41 in894.3 mb - 0.00 in0.0 mm 0.18 in4.6 mm
07:50 PM 56.0°F13.3°C 28.7°F-1.8°C 35% 1.2 mph NW1.9 kmh NW 1.2 mph1.9 kmh 26.42 in894.7 mb - 0.00 in0.0 mm 0.18 in4.6 mm
07:55 PM 56.0°F13.3°C 29.4°F-1.4°C 36% 1.2 mph NE1.9 kmh NE 1.2 mph1.9 kmh 26.42 in894.7 mb - 0.00 in0.0 mm 0.18 in4.6 mm
08:00 PM 55.0°F12.8°C 28.5°F-1.9°C 36% 3.5 mph WSW5.6 kmh WSW 5.8 mph9.3 kmh 26.42 in894.7 mb - 0.00 in0.0 mm 0.18 in4.6 mm
08:10 PM 56.0°F13.3°C 28.7°F-1.8°C 35% 1.2 mph WSW1.9 kmh WSW 3.5 mph5.6 kmh 26.43 in895.0 mb - 0.00 in0.0 mm 0.18 in4.6 mm
08:15 PM 56.0°F13.3°C 28.7°F-1.8°C 35% 2.3 mph W3.7 kmh W 3.5 mph5.6 kmh 26.43 in895.0 mb - 0.00 in0.0 mm 0.18 in4.6 mm
08:20 PM 55.0°F12.8°C 28.5°F-1.9°C 36% 2.3 mph NW3.7 kmh NW 2.3 mph3.7 kmh 26.43 in895.0 mb - 0.00 in0.0 mm 0.18 in4.6 mm
08:25 PM 55.0°F12.8°C 28.5°F-1.9°C 36% Calm Calm -- 26.44 in895.4 mb - 0.00 in0.0 mm 0.18 in4.6 mm
08:30 PM 54.0°F12.2°C 28.9°F-1.7°C 38% Calm Calm -- 26.44 in895.4 mb - 0.00 in0.0 mm 0.18 in4.6 mm
08:35 PM 54.0°F12.2°C 27.6°F-2.4°C 36% 3.5 mph WSW5.6 kmh WSW 3.5 mph5.6 kmh 26.44 in895.4 mb - 0.00 in0.0 mm 0.18 in4.6 mm
08:40 PM 55.0°F12.8°C 28.5°F-1.9°C 36% 3.5 mph NW5.6 kmh NW 5.8 mph9.3 kmh 26.44 in895.4 mb - 0.00 in0.0 mm 0.18 in4.6 mm
08:45 PM 55.0°F12.8°C 28.5°F-1.9°C 36% 1.2 mph WNW1.9 kmh WNW 2.3 mph3.7 kmh 26.45 in895.7 mb - 0.00 in0.0 mm 0.18 in4.6 mm
08:50 PM 55.0°F12.8°C 27.8°F-2.3°C 35% Calm Calm 1.2 mph1.9 kmh 26.45 in895.7 mb - 0.00 in0.0 mm 0.18 in4.6 mm
08:55 PM 55.0°F12.8°C 27.8°F-2.3°C 35% 1.2 mph NNE1.9 kmh NNE 1.2 mph1.9 kmh 26.44 in895.4 mb - 0.00 in0.0 mm 0.18 in4.6 mm
09:00 PM 55.0°F12.8°C 27.8°F-2.3°C 35% 1.2 mph NW1.9 kmh NW 5.8 mph9.3 kmh 26.44 in895.4 mb - 0.00 in0.0 mm 0.18 in4.6 mm
09:10 PM 55.0°F12.8°C 27.8°F-2.3°C 35% 2.3 mph WNW3.7 kmh WNW 3.5 mph5.6 kmh 26.44 in895.4 mb - 0.00 in0.0 mm 0.18 in4.6 mm
09:15 PM 55.0°F12.8°C 29.8°F-1.2°C 38% Calm Calm -- 26.44 in895.4 mb - 0.00 in0.0 mm 0.18 in4.6 mm
09:20 PM 54.0°F12.2°C 27.6°F-2.4°C 36% 1.2 mph NNW1.9 kmh NNW 2.3 mph3.7 kmh 26.46 in896.0 mb - 0.00 in0.0 mm 0.18 in4.6 mm
09:25 PM 55.0°F12.8°C 27.1°F-2.7°C 34% 2.3 mph W3.7 kmh W 3.5 mph5.6 kmh 26.44 in895.4 mb - 0.00 in0.0 mm 0.18 in4.6 mm
09:30 PM 55.0°F12.8°C 28.5°F-1.9°C 36% 2.3 mph NW3.7 kmh NW 3.5 mph5.6 kmh 26.44 in895.4 mb - 0.00 in0.0 mm 0.18 in4.6 mm
09:35 PM 54.0°F12.2°C 28.9°F-1.7°C 38% 1.2 mph WSW1.9 kmh WSW 2.3 mph3.7 kmh 26.45 in895.7 mb - 0.00 in0.0 mm 0.18 in4.6 mm
09:40 PM 53.0°F11.7°C 28.0°F-2.2°C 38% 2.3 mph NW3.7 kmh NW 2.3 mph3.7 kmh 26.45 in895.7 mb - 0.00 in0.0 mm 0.18 in4.6 mm
09:45 PM 53.0°F11.7°C 28.7°F-1.8°C 39% Calm Calm 2.3 mph3.7 kmh 26.45 in895.7 mb - 0.00 in0.0 mm 0.18 in4.6 mm
09:50 PM 52.4°F11.3°C 28.7°F-1.8°C 40% Calm Calm -- 26.45 in895.7 mb - 0.00 in0.0 mm 0.18 in4.6 mm
09:55 PM 51.0°F10.6°C 29.3°F-1.5°C 43% Calm Calm -- 26.46 in896.0 mb - 0.00 in0.0 mm 0.18 in4.6 mm
10:00 PM 50.0°F10.0°C 27.8°F-2.3°C 42% Calm Calm 1.2 mph1.9 kmh 26.46 in896.0 mb - 0.00 in0.0 mm 0.18 in4.6 mm
10:10 PM 50.0°F10.0°C 30.0°F-1.1°C 46% Calm Calm -- 26.47 in896.4 mb - 0.00 in0.0 mm 0.18 in4.6 mm
10:15 PM 49.0°F9.4°C 30.1°F-1.1°C 48% 1.2 mph NNE1.9 kmh NNE 1.2 mph1.9 kmh 26.48 in896.7 mb - 0.00 in0.0 mm 0.18 in4.6 mm
10:20 PM 48.0°F8.9°C 30.2°F-1.0°C 50% Calm Calm -- 26.49 in897.1 mb - 0.00 in0.0 mm 0.18 in4.6 mm
10:25 PM 48.0°F8.9°C 29.7°F-1.3°C 49% Calm Calm -- 26.48 in896.7 mb - 0.00 in0.0 mm 0.18 in4.6 mm
10:30 PM 48.0°F8.9°C 31.7°F-0.2°C 53% Calm Calm -- 26.49 in897.1 mb - 0.00 in0.0 mm 0.18 in4.6 mm
10:35 PM 49.5°F9.7°C 32.1°F0.1°C 51% Calm Calm -- 26.49 in897.1 mb - 0.00 in0.0 mm 0.18 in4.6 mm
10:40 PM 49.3°F9.6°C 31.9°F-0.1°C 51% Calm Calm -- 26.49 in897.1 mb - 0.00 in0.0 mm 0.18 in4.6 mm
10:45 PM 47.0°F8.3°C 30.7°F-0.7°C 53% Calm Calm -- 26.49 in897.1 mb - 0.00 in0.0 mm 0.18 in4.6 mm
10:50 PM 47.0°F8.3°C 32.1°F0.1°C 56% Calm Calm -- 26.49 in897.1 mb - 0.00 in0.0 mm 0.18 in4.6 mm
10:55 PM 46.0°F7.8°C 30.3°F-0.9°C 54% Calm Calm -- 26.50 in897.4 mb - 0.00 in0.0 mm 0.18 in4.6 mm
11:00 PM 47.0°F8.3°C 30.7°F-0.7°C 53% Calm Calm -- 26.50 in897.4 mb - 0.00 in0.0 mm 0.18 in4.6 mm
11:10 PM 45.0°F7.2°C 30.7°F-0.7°C 57% Calm Calm -- 26.50 in897.4 mb - 0.00 in0.0 mm 0.18 in4.6 mm
11:15 PM 46.0°F7.8°C 31.6°F-0.2°C 57% Calm Calm -- 26.51 in897.7 mb - 0.00 in0.0 mm 0.18 in4.6 mm
11:20 PM 45.0°F7.2°C 31.5°F-0.3°C 59% Calm Calm -- 26.51 in897.7 mb - 0.00 in0.0 mm 0.18 in4.6 mm
11:25 PM 45.0°F7.2°C 31.1°F-0.5°C 58% 1.2 mph NNE1.9 kmh NNE 1.2 mph1.9 kmh 26.51 in897.7 mb - 0.00 in0.0 mm 0.18 in4.6 mm
11:30 PM 45.0°F7.2°C 30.7°F-0.7°C 57% 1.2 mph NNE1.9 kmh NNE 1.2 mph1.9 kmh 26.51 in897.7 mb - 0.00 in0.0 mm 0.18 in4.6 mm
11:35 PM 45.0°F7.2°C 31.1°F-0.5°C 58% Calm Calm -- 26.51 in897.7 mb - 0.00 in0.0 mm 0.18 in4.6 mm
11:40 PM 44.0°F6.7°C 31.4°F-0.3°C 61% Calm Calm -- 26.51 in897.7 mb - 0.00 in0.0 mm 0.18 in4.6 mm
11:45 PM 44.0°F6.7°C 31.4°F-0.3°C 61% Calm Calm -- 26.52 in898.1 mb - 0.00 in0.0 mm 0.18 in4.6 mm
11:50 PM 44.0°F6.7°C 31.8°F-0.1°C 62% Calm Calm -- 26.52 in898.1 mb - 0.00 in0.0 mm 0.18 in4.6 mm
11:55 PM 44.0°F6.7°C 31.4°F-0.3°C 61% Calm Calm -- 26.52 in898.1 mb - 0.00 in0.0 mm 0.18 in4.6 mm